Time;durP1;ratioP1;P1;durP2;ratioP2;P2;SDS_P1;SDS_P2;PMS_P1;PMS_P2;Temp;Humidity;BMP_temperature;BMP_pressure;BME280_temperature;BME280_humidity;BME280_pressure;Samples;Min_cycle;Max_cycle;Signal;HPM_P1;HPM_P2
2022/07/14 00:02:24;;;;;;;1.10;1.00;;;19.70;99.80;;;;;;5014680;28;20198;-80
2022/07/14 00:04:50;;;;;;;2.30;1.20;;;19.60;99.70;;;;;;5012619;28;20293;-80
2022/07/14 00:07:15;;;;;;;2.57;1.17;;;19.60;98.80;;;;;;5014983;28;20213;-80
2022/07/14 00:09:41;;;;;;;1.77;0.87;;;19.70;98.50;;;;;;5014573;28;20718;-79
2022/07/14 00:12:06;;;;;;;2.83;0.70;;;19.70;98.40;;;;;;5014325;28;20655;-81
2022/07/14 00:14:32;;;;;;;0.97;0.90;;;19.70;97.20;;;;;;5015728;28;20206;-81
2022/07/14 00:16:57;;;;;;;1.10;1.00;;;19.70;98.00;;;;;;5012973;28;20252;-83
2022/07/14 00:19:23;;;;;;;1.73;0.97;;;19.60;97.70;;;;;;5009382;28;20198;-81
2022/07/14 00:21:49;;;;;;;2.60;0.97;;;19.60;98.20;;;;;;5010638;28;20178;-81
2022/07/14 00:24:14;;;;;;;2.93;0.90;;;19.50;98.50;;;;;;5010809;28;20202;-82
2022/07/14 00:26:40;;;;;;;6.00;1.00;;;19.40;98.70;;;;;;5012903;28;20171;-82
2022/07/14 00:29:07;;;;;;;1.43;1.00;;;19.40;97.40;;;;;;5010257;28;20647;-81
2022/07/14 00:31:33;;;;;;;0.97;0.73;;;19.40;97.50;;;;;;5017501;28;20494;-81
2022/07/14 00:34:00;;;;;;;1.90;1.30;;;19.40;97.80;;;;;;5017327;28;20449;-80
2022/07/14 00:36:28;;;;;;;3.40;1.10;;;19.40;97.70;;;;;;5015021;28;20777;-81
2022/07/14 00:38:55;;;;;;;1.43;0.90;;;19.40;97.90;;;;;;5015718;28;20572;-81
2022/07/14 00:41:20;;;;;;;3.17;0.90;;;19.40;96.80;;;;;;5019503;28;20467;-81
2022/07/14 00:43:46;;;;;;;3.73;1.00;;;19.40;97.00;;;;;;5014664;28;20457;-80
2022/07/14 00:46:12;;;;;;;3.07;0.80;;;19.50;98.20;;;;;;5014519;28;20173;-79
2022/07/14 00:48:37;;;;;;;1.53;0.97;;;19.50;98.10;;;;;;5011527;28;20178;-79
2022/07/14 00:51:03;;;;;;;1.27;1.17;;;19.40;97.80;;;;;;5009715;28;20189;-82
2022/07/14 00:53:29;;;;;;;9.63;1.23;;;19.30;97.90;;;;;;5010733;28;20218;-80
2022/07/14 00:55:54;;;;;;;3.30;1.17;;;19.30;98.30;;;;;;5013175;28;20432;-80
2022/07/14 00:58:20;;;;;;;1.50;1.30;;;19.20;98.80;;;;;;5009726;28;20236;-80
2022/07/14 01:00:46;;;;;;;1.53;1.17;;;19.10;99.10;;;;;;5009305;28;20218;-79
2022/07/14 01:03:11;;;;;;;4.70;1.40;;;19.10;99.40;;;;;;5015451;28;20578;-81
2022/07/14 01:05:37;;;;;;;3.30;1.30;;;19.00;99.40;;;;;;5013058;28;20480;-82
2022/07/14 01:08:04;;;;;;;5.30;1.17;;;19.10;99.70;;;;;;5010614;28;20199;-82
2022/07/14 01:10:29;;;;;;;1.00;0.90;;;19.00;99.90;;;;;;5015827;28;20963;-83
2022/07/14 01:12:59;;;;;;;5.87;1.20;;;18.70;99.90;;;;;;5013489;28;20453;-80
2022/07/14 01:15:25;;;;;;;1.07;0.97;;;18.40;99.90;;;;;;5017329;28;20233;-81
2022/07/14 01:17:50;;;;;;;1.10;1.00;;;18.30;99.90;;;;;;5019262;28;20433;-82
2022/07/14 01:20:17;;;;;;;1.47;1.10;;;18.10;99.90;;;;;;5019213;28;20191;-80
2022/07/14 01:22:46;;;;;;;1.40;1.00;;;18.20;99.90;;;;;;5020258;28;20567;-80
2022/07/14 01:25:12;;;;;;;1.93;0.93;;;18.10;99.90;;;;;;5018794;28;20467;-80
2022/07/14 01:27:38;;;;;;;8.37;1.93;;;18.00;99.90;;;;;;5018167;28;20424;-79
2022/07/14 01:30:06;;;;;;;1.40;1.10;;;18.00;99.90;;;;;;5016591;28;20447;-80
2022/07/14 01:32:31;;;;;;;3.10;0.97;;;18.10;99.90;;;;;;5017188;28;20268;-80
2022/07/14 01:34:57;;;;;;;1.93;0.70;;;18.10;99.90;;;;;;5016393;28;20473;-80
2022/07/14 01:37:23;;;;;;;3.50;1.17;;;18.10;99.90;;;;;;5017888;28;20178;-80
2022/07/14 01:39:49;;;;;;;2.00;0.73;;;18.10;99.90;;;;;;5016519;28;20477;-82
2022/07/14 01:42:14;;;;;;;3.53;1.00;;;18.10;99.90;;;;;;5017474;28;20226;-82
2022/07/14 01:44:40;;;;;;;1.60;1.20;;;18.20;99.90;;;;;;5013815;28;20298;-80
2022/07/14 01:47:06;;;;;;;2.90;0.90;;;18.20;99.90;;;;;;5028579;28;20185;-81
2022/07/14 01:49:31;;;;;;;0.97;0.90;;;18.30;99.90;;;;;;5013034;28;20179;-81
2022/07/14 01:51:57;;;;;;;1.37;1.00;;;18.20;99.90;;;;;;5013230;28;20190;-81
2022/07/14 01:54:24;;;;;;;2.10;1.00;;;18.20;99.90;;;;;;5012314;28;20218;-80
2022/07/14 01:56:50;;;;;;;2.13;1.30;;;18.30;99.90;;;;;;5014457;28;20186;-80
2022/07/14 01:59:16;;;;;;;2.27;0.90;;;18.40;99.90;;;;;;5014628;28;20476;-80
2022/07/14 02:01:42;;;;;;;1.53;1.00;;;18.50;99.90;;;;;;5016611;28;20182;-80
2022/07/14 02:04:13;;;;;;;1.97;1.50;;;18.60;99.90;;;;;;5031019;28;20187;-80
2022/07/14 02:06:52;;;;;;;2.43;1.10;;;18.60;99.90;;;;;;5016254;28;20436;-80
2022/07/14 02:09:19;;;;;;;1.83;1.10;;;18.50;99.90;;;;;;5012769;28;20444;-81
2022/07/14 02:14:31;;;;;;;4.70;1.80;;;18.40;99.90;;;;;;5013665;28;20491;-80
2022/07/14 02:16:57;;;;;;;1.90;1.33;;;18.40;99.90;;;;;;5011932;28;20433;-81
2022/07/14 02:19:26;;;;;;;2.00;1.23;;;18.30;99.90;;;;;;5011102;28;20459;-81
2022/07/14 02:21:53;;;;;;;3.30;1.00;;;18.20;99.90;;;;;;5010400;28;20274;-80
2022/07/14 02:24:20;;;;;;;1.47;1.20;;;18.20;99.90;;;;;;5009468;28;20463;-81
2022/07/14 02:26:50;;;;;;;2.13;1.10;;;18.10;99.90;;;;;;5011579;28;20430;-81
2022/07/14 02:29:16;;;;;;;1.23;0.90;;;18.10;99.90;;;;;;5010209;28;20445;-80
2022/07/14 02:31:42;;;;;;;1.30;1.20;;;18.00;99.90;;;;;;5009793;28;21086;-80
2022/07/14 02:34:07;;;;;;;2.60;0.90;;;18.00;99.90;;;;;;5033429;28;20464;-81
2022/07/14 02:36:33;;;;;;;1.30;1.10;;;18.00;99.90;;;;;;5016603;28;20441;-81
2022/07/14 02:38:58;;;;;;;3.40;0.90;;;17.90;99.90;;;;;;5013555;28;20190;-80
2022/07/14 02:41:24;;;;;;;4.90;1.60;;;17.70;99.90;;;;;;5016168;28;20214;-80
2022/07/14 02:43:50;;;;;;;1.30;1.20;;;17.50;99.90;;;;;;5019115;28;20194;-80
2022/07/14 02:46:15;;;;;;;3.00;1.30;;;17.40;99.90;;;;;;5018444;28;20194;-80
2022/07/14 02:48:41;;;;;;;2.20;1.10;;;17.40;99.90;;;;;;5017971;28;20189;-80
2022/07/14 02:51:08;;;;;;;2.20;1.67;;;17.30;99.90;;;;;;5015095;28;20186;-80
2022/07/14 02:53:35;;;;;;;2.67;1.17;;;17.30;99.90;;;;;;5008988;28;20210;-80
2022/07/14 02:56:05;;;;;;;1.37;1.20;;;17.40;99.90;;;;;;5007516;28;20434;-79
2022/07/14 02:58:31;;;;;;;2.20;1.50;;;17.40;99.90;;;;;;5012050;28;20433;-82
2022/07/14 03:00:57;;;;;;;3.57;1.50;;;17.60;99.90;;;;;;5015150;28;20484;-81
2022/07/14 03:03:22;;;;;;;2.40;1.63;;;17.60;99.90;;;;;;5016950;28;20178;-80
2022/07/14 03:05:49;;;;;;;3.23;1.13;;;17.70;99.90;;;;;;5016417;28;20187;-79
2022/07/14 03:08:14;;;;;;;2.23;1.60;;;17.60;99.90;;;;;;5016324;28;20189;-80
2022/07/14 03:10:41;;;;;;;8.40;1.50;;;17.60;99.90;;;;;;5014423;28;20441;-80
2022/07/14 03:13:07;;;;;;;1.67;1.20;;;17.50;99.90;;;;;;5016594;28;20570;-80
2022/07/14 03:15:33;;;;;;;1.60;1.20;;;17.50;99.90;;;;;;5016905;28;20519;-80
2022/07/14 03:17:58;;;;;;;2.40;1.53;;;17.50;99.90;;;;;;5014283;28;20460;-80
2022/07/14 03:20:24;;;;;;;14.50;1.30;;;17.60;99.90;;;;;;5016971;28;20472;-80
2022/07/14 03:22:50;;;;;;;2.13;1.50;;;17.60;99.90;;;;;;5015777;28;20189;-80
2022/07/14 03:25:15;;;;;;;1.43;1.30;;;17.60;99.90;;;;;;5014197;28;20464;-80
2022/07/14 03:27:41;;;;;;;2.17;1.30;;;17.50;99.90;;;;;;5016339;28;20182;-81
2022/07/14 03:30:08;;;;;;;2.50;1.40;;;17.60;99.90;;;;;;5014803;28;20175;-81
2022/07/14 03:32:34;;;;;;;2.43;1.30;;;17.60;99.90;;;;;;5016127;28;20187;-81
2022/07/14 03:35:03;;;;;;;5.23;1.20;;;17.40;99.90;;;;;;5013891;28;20472;-81
2022/07/14 03:37:29;;;;;;;3.23;1.43;;;17.30;99.90;;;;;;5016964;28;20436;-80
2022/07/14 03:39:54;;;;;;;2.17;1.03;;;17.30;99.90;;;;;;5014112;28;20469;-81
2022/07/14 03:42:20;;;;;;;4.70;1.90;;;17.30;99.90;;;;;;5016592;28;20524;-80
2022/07/14 03:44:45;;;;;;;1.80;1.30;;;17.20;99.90;;;;;;5015606;28;20217;-81
2022/07/14 03:47:11;;;;;;;1.20;1.10;;;17.30;99.90;;;;;;5014970;28;20190;-81
2022/07/14 03:49:37;;;;;;;1.40;1.30;;;17.40;99.90;;;;;;5016383;28;20240;-80
2022/07/14 03:52:02;;;;;;;7.63;2.03;;;17.40;99.90;;;;;;5014979;28;20186;-81
2022/07/14 03:54:28;;;;;;;1.33;1.23;;;17.50;99.90;;;;;;5013151;28;20221;-80
2022/07/14 03:56:54;;;;;;;5.90;2.03;;;17.50;99.90;;;;;;5017300;28;20465;-82
2022/07/14 03:59:19;;;;;;;4.00;1.13;;;17.60;99.90;;;;;;5015515;28;20217;-81
2022/07/14 04:01:45;;;;;;;3.17;1.87;;;17.90;99.90;;;;;;5012789;28;20274;-80
2022/07/14 04:04:10;;;;;;;1.97;1.60;;;18.20;99.90;;;;;;5019157;28;20214;-81
2022/07/14 04:06:36;;;;;;;3.50;2.20;;;18.40;99.90;;;;;;5014233;28;20190;-80
2022/07/14 04:09:02;;;;;;;5.80;1.90;;;18.40;99.90;;;;;;5017353;28;20207;-82
2022/07/14 04:11:27;;;;;;;3.47;1.60;;;18.40;99.90;;;;;;5023205;28;20194;-83
2022/07/14 04:13:53;;;;;;;5.23;1.50;;;18.30;99.90;;;;;;5020915;28;20464;-82
2022/07/14 04:16:19;;;;;;;3.10;1.90;;;18.20;99.90;;;;;;5020920;28;20269;-81
2022/07/14 04:18:44;;;;;;;3.50;1.37;;;17.90;99.90;;;;;;5028713;28;20174;-82
2022/07/14 04:21:10;;;;;;;2.50;1.47;;;17.70;99.90;;;;;;5017297;28;20218;-81
2022/07/14 04:23:36;;;;;;;3.90;1.60;;;17.60;99.90;;;;;;5015278;28;20199;-82
2022/07/14 04:26:03;;;;;;;3.43;1.47;;;17.90;99.90;;;;;;5017000;28;20421;-80
2022/07/14 04:28:29;;;;;;;5.20;1.83;;;18.90;99.90;;;;;;5018606;28;20512;-80
2022/07/14 04:30:55;;;;;;;1.23;1.10;;;20.20;99.90;;;;;;5018291;28;20440;-82
2022/07/14 04:33:21;;;;;;;2.33;1.33;;;21.90;99.90;;;;;;5019822;28;20425;-81
2022/07/14 04:35:47;;;;;;;2.80;1.40;;;23.60;99.90;;;;;;5018959;28;20183;-82
2022/07/14 04:38:12;;;;;;;1.63;1.30;;;25.30;99.90;;;;;;5019310;28;20438;-83
2022/07/14 04:40:38;;;;;;;1.93;1.60;;;27.10;95.90;;;;;;5020770;28;20609;-81
2022/07/14 04:43:04;;;;;;;3.87;1.93;;;27.60;90.30;;;;;;5025058;28;20182;-81
2022/07/14 04:45:30;;;;;;;2.87;1.60;;;28.30;87.60;;;;;;5013045;28;20206;-82
2022/07/14 04:47:55;;;;;;;1.73;1.50;;;29.60;81.90;;;;;;5009459;28;20263;-82
2022/07/14 04:53:05;;;;;;;3.63;2.10;;;30.90;72.50;;;;;;5005083;28;20224;-81
2022/07/14 04:55:31;;;;;;;2.70;2.00;;;32.70;68.40;;;;;;5015657;28;20899;-81
2022/07/14 04:57:56;;;;;;;3.37;1.70;;;34.00;61.80;;;;;;5018438;28;20181;-81
2022/07/14 05:00:22;;;;;;;3.47;2.33;;;33.80;57.30;;;;;;5037617;28;20209;-81
2022/07/14 05:02:48;;;;;;;2.00;1.73;;;33.30;56.90;;;;;;5020128;28;20174;-80
2022/07/14 05:05:13;;;;;;;5.60;1.87;;;32.80;56.30;;;;;;5019531;28;20198;-81
2022/07/14 05:07:38;;;;;;;2.53;1.60;;;30.50;57.90;;;;;;5018905;28;20265;-81
2022/07/14 05:10:06;;;;;;;2.57;1.87;;;30.10;61.00;;;;;;5020098;28;20174;-81
2022/07/14 05:12:32;;;;;;;4.03;2.00;;;30.40;62.20;;;;;;5019488;28;20742;-81
2022/07/14 05:14:57;;;;;;;6.90;2.50;;;31.00;61.00;;;;;;5021770;28;20456;-80
2022/07/14 05:17:23;;;;;;;1.53;1.40;;;32.20;60.40;;;;;;5022605;28;20439;-81
2022/07/14 05:19:51;;;;;;;4.43;2.13;;;33.60;57.90;;;;;;5021477;28;20210;-81
2022/07/14 05:22:17;;;;;;;2.37;2.00;;;33.90;56.00;;;;;;5022805;28;20172;-81
2022/07/14 05:24:42;;;;;;;3.60;2.60;;;33.90;57.20;;;;;;5021734;28;20466;-81
2022/07/14 05:27:08;;;;;;;5.27;2.97;;;34.40;54.60;;;;;;5039225;28;20195;-81
2022/07/14 05:29:33;;;;;;;3.47;3.17;;;35.40;55.60;;;;;;5022478;28;20185;-81
2022/07/14 05:31:59;;;;;;;3.00;2.80;;;36.60;52.50;;;;;;5021889;28;20179;-82
2022/07/14 05:34:24;;;;;;;6.47;3.73;;;37.80;51.10;;;;;;5023789;28;20198;-81
2022/07/14 05:36:50;;;;;;;6.27;4.40;;;39.20;49.60;;;;;;5020011;28;20816;-82
2022/07/14 05:39:15;;;;;;;6.63;6.03;;;40.90;46.60;;;;;;5021922;28;20201;-82
2022/07/14 05:41:41;;;;;;;7.73;6.23;;;40.30;45.70;;;;;;5018711;28;20209;-82
2022/07/14 05:44:07;;;;;;;7.90;5.97;;;40.40;45.60;;;;;;5018689;28;20245;-82
2022/07/14 05:46:32;;;;;;;10.60;7.57;;;41.70;44.30;;;;;;5037930;28;20204;-81
2022/07/14 05:48:58;;;;;;;8.27;7.67;;;40.90;42.70;;;;;;5019481;28;20345;-82
2022/07/14 05:51:23;;;;;;;8.83;8.23;;;40.40;43.60;;;;;;5035682;28;20166;-82
2022/07/14 05:53:49;;;;;;;8.87;8.27;;;40.10;42.20;;;;;;5016538;28;20217;-81
2022/07/14 05:56:18;;;;;;;9.73;8.83;;;39.10;41.70;;;;;;5016553;28;20173;-80
2022/07/14 05:58:45;;;;;;;8.50;7.80;;;37.50;42.90;;;;;;5011907;28;20179;-81
2022/07/14 06:01:11;;;;;;;7.57;6.93;;;36.40;45.10;;;;;;5018832;28;21173;-82
2022/07/14 06:03:37;;;;;;;6.83;6.50;;;36.50;45.90;;;;;;5020234;28;20458;-81
2022/07/14 06:06:05;;;;;;;6.60;6.20;;;36.40;46.90;;;;;;5021554;28;20441;-82
2022/07/14 06:08:31;;;;;;;7.33;6.63;;;36.20;47.00;;;;;;5025360;28;20176;-82
2022/07/14 06:10:57;;;;;;;6.93;6.43;;;35.90;46.30;;;;;;5025207;28;20441;-82
2022/07/14 06:13:24;;;;;;;6.43;5.83;;;35.00;48.30;;;;;;5024031;28;20460;-82
2022/07/14 06:15:50;;;;;;;6.00;5.63;;;34.60;47.70;;;;;;5023267;28;20447;-81
2022/07/14 06:18:15;;;;;;;5.83;5.53;;;34.40;49.30;;;;;;5023914;28;21007;-81
2022/07/14 06:20:41;;;;;;;8.43;5.60;;;34.20;50.10;;;;;;5022581;28;20265;-81
2022/07/14 06:23:09;;;;;;;5.73;4.93;;;34.60;49.60;;;;;;5023577;28;20266;-81
2022/07/14 06:25:39;;;;;;;7.17;5.50;;;34.40;50.10;;;;;;5020450;28;20467;-81
2022/07/14 06:28:05;;;;;;;6.90;5.77;;;34.00;50.80;;;;;;5018357;28;20428;-81
2022/07/14 06:30:31;;;;;;;4.90;4.50;;;34.00;51.90;;;;;;5022538;28;20963;-81
2022/07/14 06:32:57;;;;;;;5.37;5.07;;;34.60;52.40;;;;;;5023099;28;20443;-82
2022/07/14 06:35:23;;;;;;;5.27;4.80;;;34.90;51.80;;;;;;5013044;28;20203;-85
2022/07/14 06:37:52;;;;;;;7.23;5.43;;;34.90;51.00;;;;;;5014478;28;20822;-81
2022/07/14 06:40:17;;;;;;;6.47;5.63;;;33.50;52.90;;;;;;5020810;28;20199;-82
2022/07/14 06:42:43;;;;;;;5.93;5.13;;;32.60;54.80;;;;;;5020351;28;20438;-81
2022/07/14 06:45:09;;;;;;;10.60;5.63;;;33.90;54.10;;;;;;5018509;28;20203;-81
2022/07/14 06:47:34;;;;;;;7.43;5.20;;;33.30;53.20;;;;;;5017086;28;20414;-80
2022/07/14 06:50:00;;;;;;;6.97;4.70;;;32.50;54.60;;;;;;5019994;28;20490;-81
2022/07/14 06:52:26;;;;;;;7.07;4.93;;;31.50;56.60;;;;;;5023361;28;20249;-81
2022/07/14 06:54:52;;;;;;;10.90;4.90;;;31.20;58.00;;;;;;5019405;28;20280;-81
2022/07/14 06:57:19;;;;;;;11.13;4.93;;;30.60;59.60;;;;;;5036137;28;20247;-81
2022/07/14 06:59:45;;;;;;;9.90;4.80;;;30.40;61.70;;;;;;5022504;28;20499;-81
2022/07/14 07:02:10;;;;;;;9.50;4.43;;;30.50;61.40;;;;;;5019069;28;20540;-81
2022/07/14 07:04:36;;;;;;;11.40;4.23;;;30.40;60.70;;;;;;5023460;28;20457;-82
2022/07/14 07:07:02;;;;;;;5.53;4.00;;;30.50;61.40;;;;;;5022498;28;20182;-81
2022/07/14 07:09:27;;;;;;;8.23;4.30;;;31.90;59.20;;;;;;5036991;28;20200;-82
2022/07/14 07:11:53;;;;;;;6.20;4.40;;;34.50;54.00;;;;;;5020558;28;20172;-82
2022/07/14 07:14:19;;;;;;;7.83;5.03;;;35.70;51.20;;;;;;5015333;28;20268;-81
2022/07/14 07:16:46;;;;;;;12.23;6.13;;;36.70;49.40;;;;;;5022299;28;20418;-81
2022/07/14 07:19:11;;;;;;;7.50;6.93;;;38.10;48.80;;;;;;5025122;28;20309;-82
2022/07/14 07:21:37;;;;;;;7.13;6.53;;;38.50;45.90;;;;;;5027266;28;20447;-82
2022/07/14 07:24:03;;;;;;;8.30;7.70;;;39.70;44.20;;;;;;5021326;28;20187;-81
2022/07/14 07:26:33;;;;;;;10.80;10.23;;;41.40;42.30;;;;;;5017513;28;20171;-81
2022/07/14 07:28:59;;;;;;;13.73;10.33;;;43.00;40.00;;;;;;5015715;28;20441;-82
2022/07/14 07:31:25;;;;;;;13.90;13.03;;;44.80;37.90;;;;;;5025833;28;20417;-82
2022/07/14 07:33:51;;;;;;;11.63;10.60;;;46.20;35.80;;;;;;5025745;28;20434;-81
2022/07/14 07:36:17;;;;;;;15.00;13.97;;;47.50;33.30;;;;;;5024321;28;20405;-81
2022/07/14 07:38:43;;;;;;;11.80;11.10;;;47.20;31.40;;;;;;5023553;28;20253;-82
2022/07/14 07:41:09;;;;;;;17.30;16.50;;;47.90;30.90;;;;;;5024926;28;20449;-82
2022/07/14 07:43:35;;;;;;;12.00;10.80;;;49.60;30.50;;;;;;5025337;28;20487;-82
2022/07/14 07:46:02;;;;;;;16.27;15.07;;;49.00;28.80;;;;;;5020805;28;20418;-82
2022/07/14 07:48:29;;;;;;;17.80;16.60;;;47.90;28.70;;;;;;5023851;28;20177;-82
2022/07/14 07:50:55;;;;;;;15.27;14.50;;;46.30;29.30;;;;;;5024193;28;20417;-81
2022/07/14 07:53:21;;;;;;;11.70;10.90;;;44.60;29.90;;;;;;5020311;28;20436;-81
2022/07/14 07:55:46;;;;;;;17.10;16.20;;;44.40;31.30;;;;;;5036982;28;20425;-81
2022/07/14 07:58:12;;;;;;;15.23;14.13;;;42.70;30.90;;;;;;5016072;28;20182;-82
2022/07/14 08:00:38;;;;;;;15.13;14.43;;;42.00;32.50;;;;;;5019841;28;20204;-82
2022/07/14 08:03:04;;;;;;;15.87;14.70;;;41.10;33.00;;;;;;5024176;28;20414;-82
2022/07/14 08:05:30;;;;;;;15.67;14.87;;;41.20;34.80;;;;;;5023614;28;20276;-80
2022/07/14 08:07:56;;;;;;;13.77;12.87;;;41.50;34.30;;;;;;5023527;28;20453;-82
2022/07/14 08:10:22;;;;;;;15.90;15.00;;;42.20;33.90;;;;;;5017434;28;20417;-83
2022/07/14 08:12:48;;;;;;;17.40;16.70;;;41.80;33.30;;;;;;5021415;28;20166;-82
2022/07/14 08:15:14;;;;;;;20.90;19.90;;;42.00;33.20;;;;;;5019479;28;20502;-82
2022/07/14 08:17:40;;;;;;;17.60;16.30;;;42.50;34.00;;;;;;5021462;28;20193;-81
2022/07/14 08:20:10;;;;;;;17.17;16.47;;;43.50;32.30;;;;;;5035327;28;20465;-83
2022/07/14 08:22:37;;;;;;;15.40;14.60;;;45.90;30.60;;;;;;5022977;28;20460;-82
2022/07/14 08:25:05;;;;;;;16.73;15.83;;;47.30;28.50;;;;;;5023566;28;20472;-82
2022/07/14 08:27:30;;;;;;;18.67;17.73;;;46.60;28.10;;;;;;5021459;28;20432;-82
2022/07/14 08:29:56;;;;;;;20.23;19.33;;;47.40;28.90;;;;;;5019708;28;20438;-83
2022/07/14 08:32:34;;;;;;;20.83;19.63;;;47.70;26.90;;;;;;5023194;28;20215;-83
2022/07/14 08:35:02;;;;;;;20.63;19.63;;;48.50;27.50;;;;;;5018853;28;20206;-82
2022/07/14 08:37:28;;;;;;;20.13;18.80;;;;;;;;;;5023985;28;20429;-82
2022/07/14 08:39:53;;;;;;;20.63;19.63;;;48.20;25.60;;;;;;5023010;28;20465;-82
2022/07/14 08:42:20;;;;;;;14.87;14.10;;;46.60;25.60;;;;;;5037790;28;20833;-82
2022/07/14 08:44:46;;;;;;;21.43;20.37;;;44.00;25.90;;;;;;5020572;28;20285;-82
2022/07/14 08:47:12;;;;;;;18.37;16.97;;;43.60;27.60;;;;;;5023473;28;20455;-82
2022/07/14 08:49:38;;;;;;;18.27;17.47;;;42.50;28.10;;;;;;5018481;28;20449;-82
2022/07/14 08:52:04;;;;;;;17.87;17.07;;;42.30;27.30;;;;;;5022758;28;20237;-82
2022/07/14 08:54:30;;;;;;;19.30;17.97;;;42.00;27.80;;;;;;5022858;28;20472;-82
2022/07/14 08:56:56;;;;;;;18.57;17.70;;;44.10;28.50;;;;;;5018423;28;20796;-83
2022/07/14 08:59:21;;;;;;;22.37;20.13;;;41.80;26.70;;;;;;5022864;28;20432;-82
2022/07/14 09:01:50;;;;;;;15.67;14.37;;;40.10;28.60;;;;;;5019620;28;20178;-85
2022/07/14 09:04:16;;;;;;;13.23;12.53;;;39.30;29.50;;;;;;5016795;28;20206;-84
2022/07/14 09:06:42;;;;;;;14.43;13.10;;;36.90;30.30;;;;;;5031609;28;20701;-83
2022/07/14 09:09:08;;;;;;;12.87;12.10;;;37.90;31.50;;;;;;5013638;28;20437;-82
2022/07/14 09:11:34;;;;;;;14.67;13.67;;;38.80;31.20;;;;;;5012613;28;21013;-84
2022/07/14 09:14:10;;;;;;;13.57;12.47;;;41.60;32.20;;;;;;5009957;28;20277;-83
2022/07/14 09:16:36;;;;;;;12.40;11.53;;;38.60;29.60;;;;;;5011351;28;20919;-83
2022/07/14 09:19:10;;;;;;;12.70;11.77;;;38.10;30.00;;;;;;5014409;28;20435;-82
2022/07/14 09:21:38;;;;;;;13.07;12.17;;;37.20;31.80;;;;;;5007319;28;20570;-82
2022/07/14 09:24:08;;;;;;;12.97;12.37;;;38.40;32.00;;;;;;5011899;28;20469;-83
2022/07/14 09:26:45;;;;;;;13.00;12.10;;;38.10;30.90;;;;;;5013172;28;20515;-83
2022/07/14 09:29:19;;;;;;;12.83;12.03;;;38.40;33.00;;;;;;5011065;28;20444;-82
2022/07/14 09:31:45;;;;;;;13.20;12.50;;;38.90;30.30;;;;;;5013121;28;20447;-83
2022/07/14 09:34:27;;;;;;;12.10;11.60;;;37.50;29.60;;;;;;5016887;28;20960;-82
2022/07/14 09:37:08;;;;;;;13.67;12.40;;;37.90;31.30;;;;;;5015008;28;20182;-81
2022/07/14 09:39:35;;;;;;;12.97;11.97;;;37.60;31.10;;;;;;5016442;28;20468;-82
2022/07/14 09:42:00;;;;;;;13.30;12.70;;;38.60;31.50;;;;;;5017316;28;20428;-83
2022/07/14 09:44:26;;;;;;;13.07;12.17;;;36.50;30.00;;;;;;5019217;28;20452;-81
2022/07/14 09:46:54;;;;;;;11.37;10.80;;;35.60;31.50;;;;;;5019989;28;20208;-82
2022/07/14 09:49:26;;;;;;;11.20;10.40;;;35.70;32.70;;;;;;5020361;28;20188;-82
2022/07/14 09:52:05;;;;;;;10.83;10.33;;;37.20;31.20;;;;;;5016663;28;20436;-82
2022/07/14 09:54:37;;;;;;;12.27;11.37;;;37.30;31.90;;;;;;5021243;28;20518;-80
2022/07/14 09:57:07;;;;;;;12.13;11.30;;;37.30;30.00;;;;;;5021573;28;20461;-82
2022/07/14 09:59:47;;;;;;;22.33;12.47;;;37.90;32.60;;;;;;5018050;28;20451;-83
2022/07/14 10:02:21;;;;;;;12.17;11.20;;;37.50;31.20;;;;;;5021175;28;20617;-80
2022/07/14 10:04:49;;;;;;;13.73;12.40;;;37.30;33.20;;;;;;5021736;28;20463;-81
2022/07/14 10:07:16;;;;;;;12.57;11.43;;;37.50;30.80;;;;;;5019484;28;20443;-83
2022/07/14 10:10:04;;;;;;;11.90;11.30;;;36.90;32.70;;;;;;5021173;28;20976;-82
2022/07/14 10:12:30;;;;;;;12.20;11.50;;;36.50;32.90;;;;;;5019013;28;20499;-81
2022/07/14 10:15:00;;;;;;;11.97;11.27;;;36.80;33.20;;;;;;5020942;28;20485;-82
2022/07/14 10:17:28;;;;;;;12.00;11.30;;;37.70;34.00;;;;;;5023935;28;20173;-83
2022/07/14 10:19:54;;;;;;;11.10;10.50;;;36.10;33.30;;;;;;5022063;28;20487;-82
2022/07/14 10:22:20;;;;;;;11.20;10.20;;;35.80;34.40;;;;;;5023217;28;20461;-83
2022/07/14 10:24:48;;;;;;;11.73;10.93;;;35.30;35.20;;;;;;5019229;28;20481;-81
2022/07/14 10:27:15;;;;;;;10.80;10.10;;;34.80;36.00;;;;;;5037692;28;20435;-81
2022/07/14 10:29:40;;;;;;;10.90;9.93;;;35.40;36.80;;;;;;5020661;28;20889;-83
2022/07/14 10:32:22;;;;;;;11.30;10.27;;;35.60;36.00;;;;;;5019774;28;20467;-80
2022/07/14 10:35:06;;;;;;;11.50;10.60;;;34.70;36.10;;;;;;5020651;28;20206;-83
2022/07/14 10:37:38;;;;;;;10.20;9.40;;;34.60;37.00;;;;;;5019975;28;20535;-83
2022/07/14 10:40:16;;;;;;;9.97;9.27;;;34.90;38.40;;;;;;5018568;28;20463;-84
2022/07/14 10:43:03;;;;;;;9.67;9.17;;;34.80;36.40;;;;;;5020922;28;20508;-82
2022/07/14 10:45:29;;;;;;;10.90;10.20;;;34.40;36.90;;;;;;5017950;28;21019;-82
2022/07/14 10:47:54;;;;;;;10.00;9.50;;;34.30;37.70;;;;;;5018120;28;20498;-82
2022/07/14 10:50:25;;;;;;;10.23;9.73;;;34.40;38.00;;;;;;5015661;28;20506;-82
2022/07/14 10:53:02;;;;;;;11.80;9.20;;;33.60;38.40;;;;;;5017527;28;20188;-81
2022/07/14 10:55:28;;;;;;;8.80;8.20;;;32.70;36.80;;;;;;5019290;28;20472;-83
2022/07/14 10:58:00;;;;;;;9.40;8.77;;;32.90;39.30;;;;;;5015870;28;20520;-82
2022/07/14 11:00:41;;;;;;;9.50;8.50;;;32.70;39.30;;;;;;5019444;28;20627;-81
2022/07/14 11:03:36;;;;;;;9.17;8.50;;;33.30;40.10;;;;;;5018860;28;20504;-82
2022/07/14 11:06:07;;;;;;;8.13;7.70;;;33.70;40.00;;;;;;5018848;28;20495;-81
2022/07/14 11:08:34;;;;;;;9.93;7.50;;;33.50;38.80;;;;;;5013786;28;20435;-81
2022/07/14 11:11:01;;;;;;;8.20;7.70;;;33.10;39.80;;;;;;5017500;28;20443;-82
2022/07/14 11:13:27;;;;;;;8.17;7.67;;;32.90;40.10;;;;;;5019690;28;20974;-80
2022/07/14 11:15:55;;;;;;;8.40;7.80;;;33.10;40.90;;;;;;5016169;28;20441;-83
2022/07/14 11:18:21;;;;;;;12.37;6.80;;;33.20;40.80;;;;;;5017655;28;20493;-81
2022/07/14 11:21:00;;;;;;;8.13;7.33;;;33.60;41.10;;;;;;5017352;28;20464;-82
2022/07/14 11:23:46;;;;;;;8.37;7.87;;;33.40;38.20;;;;;;5015649;28;20176;-79
2022/07/14 11:26:38;;;;;;;7.60;6.83;;;33.30;38.80;;;;;;5016958;28;20443;-82
2022/07/14 11:29:05;;;;;;;8.47;7.90;;;33.50;39.80;;;;;;5016256;28;20451;-80
2022/07/14 11:31:51;;;;;;;8.00;7.50;;;33.30;39.00;;;;;;5017438;28;20448;-80
2022/07/14 11:37:14;;;;;;;7.77;7.37;;;33.90;38.10;;;;;;5018059;28;21611;-81
2022/07/14 11:39:46;;;;;;;7.40;6.90;;;33.90;37.80;;;;;;5019805;28;21235;-84
2022/07/14 11:42:14;;;;;;;8.60;7.67;;;33.40;38.30;;;;;;5022539;28;20449;-83
2022/07/14 11:44:40;;;;;;;8.40;7.60;;;33.60;39.00;;;;;;5017967;28;20474;-83
2022/07/14 11:47:07;;;;;;;7.60;6.87;;;33.30;37.00;;;;;;5019535;28;20472;-83
2022/07/14 11:49:35;;;;;;;7.17;6.67;;;33.50;38.50;;;;;;5016893;28;20231;-81
2022/07/14 11:52:03;;;;;;;8.53;7.23;;;32.50;38.20;;;;;;5018330;28;20426;-81
2022/07/14 11:54:28;;;;;;;8.07;7.00;;;32.10;39.60;;;;;;5018024;28;20484;-81
2022/07/14 11:57:08;;;;;;;7.40;6.90;;;32.50;39.60;;;;;;5021705;28;20436;-82
2022/07/14 11:59:35;;;;;;;7.20;6.80;;;32.60;39.90;;;;;;5019102;28;20745;-82
2022/07/14 12:02:08;;;;;;;6.83;6.33;;;32.50;39.90;;;;;;5020029;28;20529;-83
2022/07/14 12:04:34;;;;;;;9.17;6.50;;;32.70;40.00;;;;;;5017493;28;20516;-83
2022/07/14 12:07:00;;;;;;;8.23;7.47;;;32.70;39.10;;;;;;5019532;28;20492;-82
2022/07/14 12:09:32;;;;;;;7.50;6.90;;;32.70;40.30;;;;;;5020669;28;20471;-81
2022/07/14 12:11:58;;;;;;;7.90;7.40;;;32.90;38.90;;;;;;5021774;28;20178;-83
2022/07/14 12:14:24;;;;;;;7.80;7.10;;;32.90;39.60;;;;;;5020927;28;20478;-83
2022/07/14 12:16:50;;;;;;;8.47;7.60;;;33.20;40.30;;;;;;5019783;28;20870;-82
2022/07/14 12:19:29;;;;;;;7.80;7.10;;;33.60;39.20;;;;;;5020845;28;20244;-81
2022/07/14 12:22:00;;;;;;;7.03;6.60;;;33.60;39.00;;;;;;5018394;28;20431;-82
2022/07/14 12:24:27;;;;;;;7.07;6.77;;;32.70;39.20;;;;;;5018315;28;20441;-80
2022/07/14 12:26:59;;;;;;;9.47;7.10;;;32.90;39.20;;;;;;5014306;28;20456;-81
2022/07/14 12:29:25;;;;;;;7.30;6.90;;;33.10;39.50;;;;;;5016706;28;20489;-82
2022/07/14 12:31:50;;;;;;;8.53;8.03;;;32.90;39.50;;;;;;5016009;28;20447;-82
2022/07/14 12:34:16;;;;;;;8.40;7.70;;;32.60;39.40;;;;;;5013563;28;20210;-80
2022/07/14 12:36:42;;;;;;;8.73;7.97;;;32.90;39.10;;;;;;5015655;28;20603;-81
2022/07/14 12:39:10;;;;;;;8.47;7.70;;;32.90;39.50;;;;;;5009760;28;20459;-80
2022/07/14 12:41:38;;;;;;;8.43;7.53;;;33.20;39.90;;;;;;5014913;28;20482;-82
2022/07/14 12:44:05;;;;;;;7.03;6.53;;;32.30;40.00;;;;;;5011261;28;20523;-81
2022/07/14 12:46:31;;;;;;;7.73;6.37;;;32.10;40.30;;;;;;5015283;28;20446;-80
2022/07/14 12:49:03;;;;;;;9.87;7.00;;;31.90;40.20;;;;;;5016522;28;20441;-81
2022/07/14 12:51:40;;;;;;;7.37;6.67;;;31.90;40.90;;;;;;5015357;28;20884;-81